Main page
METAR-TAF:

METAR-TAF

Airports :

Piacenza, Italy

Piacenza Air Base

latitude: 44-55N, longitude: 009-44E, elevation: 134 m

Current weather observation

The report was made 1 hour and 0 minutes ago, at 09:55 UTC
Calm wind
Temperature 9°C
Humidity 100%
Pressure 1020 hPa
Visibility: 1800 m
Scattered clouds at a height of 4000 ft
Broken clouds at a height of 6000 ft
mist

METAR: LIMS 230955Z 00000KT 1800 BR SCT040 BKN060 09/09 Q1020 RMK OVC VIS MIN 1800 WIND THR30 00000KT YLO

Time: 11:55 (10:55 UTC)


TAF: missing

Weather observations and forecasts of more than 4000 airports (METAR and TAF reports).

The available stations are represented by yellow and red dots on the map.

Hover mouse over dot to see the name of the station.

Then click to see weather observations and forecasts.

To change the map : click on the green buttons with a black cross to zoom in, on the green button with a dash to zoom out, or on the green arrows for adjacent maps.


METAR-TAF: